首页
METAR-TAF:

METAR-TAF

机场 :

成都双流国际机场

成都, 中华人民共和国

纬度: 30-40N, 经度: 104-01E, 海拔: 508米

当前天气观测

该预报发布于59分钟前的17:00 UTC
静风
温度 26°C
湿度 84%
气压 1003 hPa
能见度10公里或以上
散云层高于5000英尺

METAR: ZUUU 231700Z 00000MPS 9999 SCT050 26/23 Q1003 NOSIG

时间: 01:59 (17:59 UTC)

预报

该预报发布于3小时和46分钟前的14:13 UTC
预报有效从23日的 18点(UTC)到 24日的 18点(UTC)
风速6节,风向北转东北
能見度: 5000
少量云层高于3000英尺, 积雨云.
散云层高于3000英尺
轻雾
短暂存在
从 23日的 20点(UTC)到 24日的 02点(UTC)
阵雨

TAF: ZUUU 231413Z 2318/2418 02003MPS 5000 BR FEW030CB SCT030 TX29/2407Z TN23/2322Z TEMPO 2320/2402 SHRA

超过4000个机场的气象观测和天气预报(METAR&TAF报告)。

可查询的气象台以黄色和红色小点在地图上表示。

将鼠标移到小点上方,可查看气象台名称。

然后点击查看天气观测和预报。

如需切换地图:点击带黑十字的绿色按钮放大地图;点击带横线的绿色按钮缩小地图;或者点击绿色箭头查看邻近地区的地图。


METAR-TAF: